createdAt,value
2022-08-26T00:01:46.430Z,13.82
2022-08-26T00:04:49.730Z,14.02
2022-08-26T00:07:52.199Z,19.33
2022-08-26T00:10:54.147Z,17.13
2022-08-26T00:13:57.673Z,15.93
2022-08-26T00:17:02.102Z,16.58
2022-08-26T00:20:06.473Z,21.08
2022-08-26T00:23:09.331Z,14.02
2022-08-26T00:26:11.987Z,14.65
2022-08-26T00:29:15.519Z,15.80
2022-08-26T00:32:17.420Z,16.02
2022-08-26T00:35:22.584Z,16.13
2022-08-26T00:38:25.463Z,17.73
2022-08-26T00:41:27.548Z,13.82
2022-08-26T00:44:29.527Z,19.85
2022-08-26T00:47:36.610Z,16.05
2022-08-26T00:50:43.244Z,16.25
2022-08-26T00:53:56.102Z,17.88
2022-08-26T00:57:02.535Z,12.02
2022-08-26T01:00:11.798Z,11.30
2022-08-26T01:03:15.044Z,11.82
2022-08-26T01:06:17.492Z,15.50
2022-08-26T01:09:21.219Z,14.70
2022-08-26T01:12:26.757Z,12.48
2022-08-26T01:15:35.930Z,15.57
2022-08-26T01:18:40.980Z,14.57
2022-08-26T01:21:51.403Z,14.77
2022-08-26T01:24:53.769Z,13.17
2022-08-26T01:28:01.467Z,13.10
2022-08-26T01:31:06.087Z,12.07
2022-08-26T01:34:29.243Z,17.03
2022-08-26T01:37:35.582Z,12.05
2022-08-26T01:40:41.024Z,17.30
2022-08-26T01:43:48.592Z,13.35
2022-08-26T01:46:51.722Z,12.15
2022-08-26T01:49:56.071Z,9.57
2022-08-26T01:53:00.088Z,11.40
2022-08-26T01:56:05.933Z,14.00
2022-08-26T01:59:12.229Z,14.63
2022-08-26T02:02:14.518Z,13.93
2022-08-26T02:05:22.257Z,11.07
2022-08-26T02:08:33.558Z,12.13
2022-08-26T02:11:37.003Z,12.53
2022-08-26T02:14:44.553Z,10.07
2022-08-26T02:17:47.112Z,14.23
2022-08-26T02:20:51.722Z,13.33
2022-08-26T02:23:56.195Z,13.43
2022-08-26T02:26:58.752Z,10.83
2022-08-26T02:30:20.805Z,10.13
2022-08-26T02:33:25.491Z,11.33
2022-08-26T02:36:28.402Z,11.13
2022-08-26T02:39:31.889Z,10.97
2022-08-26T02:42:34.745Z,10.17
2022-08-26T02:45:37.378Z,10.33
2022-08-26T02:48:41.787Z,10.67
2022-08-26T02:51:44.895Z,9.27
2022-08-26T02:54:47.082Z,10.70
2022-08-26T02:57:52.384Z,10.97
2022-08-26T03:00:54.756Z,10.10
2022-08-26T03:03:57.806Z,8.87
2022-08-26T03:07:00.334Z,11.20
2022-08-26T03:10:06.896Z,9.50
2022-08-26T03:13:10.578Z,12.43
2022-08-26T03:16:13.767Z,13.53
2022-08-26T03:19:15.738Z,7.73
2022-08-26T03:22:19.712Z,10.23
2022-08-26T03:25:22.923Z,11.13
2022-08-26T03:28:27.203Z,8.23
2022-08-26T03:31:30.224Z,12.40
2022-08-26T03:34:34.151Z,11.60
2022-08-26T03:37:36.053Z,9.70
2022-08-26T03:40:39.013Z,15.07
2022-08-26T03:43:43.512Z,11.67
2022-08-26T03:46:46.993Z,9.40
2022-08-26T03:49:51.153Z,8.50
2022-08-26T03:52:55.338Z,11.63
2022-08-26T03:55:57.862Z,12.13
2022-08-26T03:59:03.143Z,10.90
2022-08-26T04:02:08.621Z,9.20
2022-08-26T04:05:17.877Z,8.13
2022-08-26T04:08:22.335Z,8.90
2022-08-26T04:11:34.117Z,10.13
2022-08-26T04:14:37.837Z,12.07
2022-08-26T04:17:41.197Z,11.60
2022-08-26T04:20:43.487Z,9.07
2022-08-26T04:23:47.099Z,12.63
2022-08-26T04:26:50.671Z,11.00
2022-08-26T04:29:55.316Z,11.17
2022-08-26T04:32:59.107Z,11.07
2022-08-26T04:36:04.934Z,10.53
2022-08-26T04:39:11.288Z,12.47
2022-08-26T04:42:14.447Z,10.07
2022-08-26T04:45:16.887Z,8.30
2022-08-26T04:48:20.023Z,9.97
2022-08-26T04:51:34.803Z,10.33
2022-08-26T04:54:37.039Z,7.20
2022-08-26T04:57:41.717Z,9.80
2022-08-26T05:00:46.322Z,11.63
2022-08-26T05:03:49.245Z,11.70
2022-08-26T05:06:51.958Z,8.23
2022-08-26T05:09:54.568Z,10.00
2022-08-26T05:13:00.978Z,7.47
2022-08-26T05:16:09.485Z,8.83
2022-08-26T05:19:14.868Z,12.80
2022-08-26T05:22:22.042Z,7.33
2022-08-26T05:25:27.469Z,8.00
2022-08-26T05:28:31.526Z,7.32
2022-08-26T05:31:34.458Z,7.88
2022-08-26T05:34:37.496Z,8.73
2022-08-26T05:37:40.652Z,9.05
2022-08-26T05:40:45.907Z,10.63
2022-08-26T05:43:48.731Z,8.20
2022-08-26T05:46:52.594Z,6.80
2022-08-26T05:49:55.904Z,10.30
2022-08-26T05:53:02.939Z,7.20
2022-08-26T05:56:08.461Z,8.75
2022-08-26T05:59:14.849Z,10.57
2022-08-26T06:02:17.030Z,6.55
2022-08-26T06:05:19.270Z,8.10
2022-08-26T06:08:24.022Z,8.88
2022-08-26T06:11:27.805Z,8.27
2022-08-26T06:14:31.822Z,8.00
2022-08-26T06:17:34.879Z,6.50
2022-08-26T06:20:38.162Z,8.63
2022-08-26T06:24:00.501Z,6.00
2022-08-26T06:27:07.311Z,9.60
2022-08-26T06:30:10.631Z,6.93
2022-08-26T06:33:14.249Z,6.13
2022-08-26T06:36:19.573Z,9.85
2022-08-26T06:39:21.682Z,11.10
2022-08-26T06:42:25.291Z,7.60
2022-08-26T06:45:28.274Z,8.45
2022-08-26T06:48:30.619Z,10.98
2022-08-26T06:51:36.712Z,9.63
2022-08-26T06:54:41.766Z,8.75
2022-08-26T06:57:46.370Z,8.15
2022-08-26T07:00:48.718Z,8.35
2022-08-26T07:03:57.835Z,9.27
2022-08-26T07:07:00.987Z,6.25
2022-08-26T07:10:07.792Z,8.52
2022-08-26T07:13:11.213Z,8.07
2022-08-26T07:16:19.524Z,8.02
2022-08-26T07:19:30.657Z,6.10
2022-08-26T07:22:34.418Z,6.65
2022-08-26T07:25:40.903Z,4.35
2022-08-26T07:28:46.455Z,7.63
2022-08-26T07:31:49.821Z,6.60
2022-08-26T07:34:51.840Z,5.97
2022-08-26T07:37:57.183Z,7.78
2022-08-26T07:40:59.243Z,6.38
2022-08-26T07:44:03.090Z,6.15
2022-08-26T07:47:25.476Z,9.48
2022-08-26T07:50:48.992Z,8.45
2022-08-26T07:53:55.994Z,9.48
2022-08-26T07:56:58.262Z,5.35
2022-08-26T08:00:02.363Z,6.65
2022-08-26T08:03:06.442Z,7.68
2022-08-26T08:06:13.635Z,6.18
2022-08-26T08:09:22.579Z,4.75
2022-08-26T08:12:27.030Z,7.43
2022-08-26T08:15:36.415Z,4.10
2022-08-26T08:18:38.439Z,7.50
2022-08-26T08:21:45.487Z,4.78
2022-08-26T08:24:54.293Z,5.90
2022-08-26T08:27:58.940Z,6.53
2022-08-26T08:31:03.071Z,3.90
2022-08-26T08:34:07.444Z,6.30
2022-08-26T08:37:16.206Z,5.88
2022-08-26T08:40:19.518Z,12.48
2022-08-26T08:43:40.895Z,5.03
2022-08-26T08:46:44.235Z,4.53
2022-08-26T08:49:48.702Z,5.43
2022-08-26T08:53:25.002Z,4.45
2022-08-26T08:56:33.402Z,6.00
2022-08-26T08:59:39.581Z,4.47
2022-08-26T09:02:57.302Z,4.22
2022-08-26T09:06:09.924Z,4.30
2022-08-26T09:09:21.874Z,6.55
2022-08-26T09:12:31.972Z,4.68
2022-08-26T09:15:40.109Z,4.38
2022-08-26T09:19:13.928Z,7.25
2022-08-26T09:22:31.578Z,11.02
2022-08-26T09:25:49.748Z,10.77
2022-08-26T09:32:43.890Z,6.38
2022-08-26T09:36:41.078Z,8.98
2022-08-26T09:39:43.630Z,8.90
2022-08-26T09:42:48.176Z,5.47
2022-08-26T09:45:59.503Z,8.75
2022-08-26T09:49:36.374Z,6.80
2022-08-26T09:52:42.955Z,11.43
2022-08-26T09:55:50.099Z,5.45
2022-08-26T09:58:54.779Z,7.68
2022-08-26T10:02:23.453Z,13.32
2022-08-26T10:05:59.084Z,8.18
2022-08-26T10:09:09.656Z,9.48
2022-08-26T10:12:18.672Z,8.68
2022-08-26T10:15:25.740Z,8.93
2022-08-26T10:18:39.683Z,6.63
2022-08-26T10:22:02.125Z,13.60
2022-08-26T10:25:10.519Z,8.68
2022-08-26T10:28:24.467Z,6.88
2022-08-26T10:31:38.209Z,6.68
2022-08-26T10:34:42.811Z,8.25
2022-08-26T10:37:58.300Z,9.38
2022-08-26T10:41:10.448Z,8.35
2022-08-26T10:44:14.725Z,6.85
2022-08-26T10:47:31.980Z,5.68
2022-08-26T10:50:39.881Z,4.85
2022-08-26T10:54:06.973Z,4.82
2022-08-26T10:57:28.442Z,10.15
2022-08-26T11:01:00.343Z,9.00
2022-08-26T11:04:47.497Z,5.35
2022-08-26T11:07:57.128Z,8.25
2022-08-26T11:11:00.923Z,5.57
2022-08-26T11:14:28.916Z,8.38
2022-08-26T11:18:00.478Z,6.90
2022-08-26T11:22:03.247Z,6.72
2022-08-26T11:25:27.754Z,10.70
2022-08-26T11:28:44.008Z,11.07
2022-08-26T11:31:54.684Z,9.25
2022-08-26T11:35:00.662Z,8.10
2022-08-26T11:38:08.352Z,6.97
2022-08-26T11:41:20.852Z,10.70
2022-08-26T11:44:27.311Z,8.18
2022-08-26T11:47:32.262Z,6.18
2022-08-26T11:50:40.135Z,8.25
2022-08-26T11:53:47.197Z,6.03
2022-08-26T11:56:58.712Z,10.02
2022-08-26T12:00:02.473Z,7.65
2022-08-26T12:03:15.193Z,8.85
2022-08-26T12:06:32.828Z,11.50
2022-08-26T12:09:39.722Z,6.50
2022-08-26T12:12:43.692Z,7.63
2022-08-26T12:16:00.129Z,6.20
2022-08-26T12:19:27.369Z,8.05
2022-08-26T12:22:35.081Z,7.60
2022-08-26T12:25:40.073Z,6.28
2022-08-26T12:29:20.272Z,8.82
2022-08-26T12:32:33.978Z,7.10
2022-08-26T12:35:40.359Z,7.93
2022-08-26T12:38:45.327Z,6.72
2022-08-26T12:41:55.370Z,6.88
2022-08-26T12:45:06.880Z,6.78
2022-08-26T12:48:11.682Z,6.00
2022-08-26T12:51:29.199Z,7.72
2022-08-26T12:54:56.549Z,9.20
2022-08-26T12:58:24.480Z,9.77
2022-08-26T13:01:29.133Z,5.50
2022-08-26T13:04:38.011Z,8.95
2022-08-26T13:07:42.631Z,6.20
2022-08-26T13:10:49.249Z,6.72
2022-08-26T13:13:56.155Z,8.15
2022-08-26T13:17:00.188Z,9.80
2022-08-26T13:20:04.811Z,4.60
2022-08-26T13:23:08.457Z,5.75
2022-08-26T13:26:15.939Z,6.07
2022-08-26T13:29:19.881Z,7.25
2022-08-26T13:32:27.593Z,9.45
2022-08-26T13:35:30.164Z,4.82
2022-08-26T13:38:34.249Z,4.65
2022-08-26T13:41:36.970Z,5.78
2022-08-26T13:44:47.110Z,7.20
2022-08-26T13:47:49.535Z,3.30
2022-08-26T13:50:56.180Z,6.00
2022-08-26T13:53:58.990Z,3.40
2022-08-26T13:57:03.061Z,3.63
2022-08-26T14:00:10.939Z,3.25
2022-08-26T14:03:14.494Z,3.88
2022-08-26T14:06:17.057Z,3.88
2022-08-26T14:09:19.364Z,4.07
2022-08-26T14:12:26.442Z,3.63
2022-08-26T14:15:28.950Z,3.75
2022-08-26T14:18:41.810Z,4.78
2022-08-26T14:21:45.226Z,5.53
2022-08-26T14:24:48.968Z,5.28
2022-08-26T14:27:54.149Z,4.13
2022-08-26T14:30:59.125Z,4.13
2022-08-26T14:34:09.028Z,4.03
2022-08-26T14:37:15.387Z,8.10
2022-08-26T14:40:19.145Z,6.35
2022-08-26T14:43:27.041Z,4.57
2022-08-26T14:50:24.980Z,5.18
2022-08-26T14:53:55.110Z,4.55
2022-08-26T15:01:08.002Z,4.03
2022-08-26T15:04:15.720Z,4.80
2022-08-26T15:07:18.419Z,8.02
2022-08-26T15:10:22.075Z,4.45
2022-08-26T15:13:28.431Z,5.97
2022-08-26T15:16:32.444Z,4.40
2022-08-26T15:19:43.130Z,6.10
2022-08-26T15:22:45.885Z,4.40
2022-08-26T15:25:49.053Z,4.25
2022-08-26T15:29:00.854Z,4.82
2022-08-26T15:32:10.379Z,4.45
2022-08-26T15:35:13.401Z,4.50
2022-08-26T15:38:19.111Z,5.68
2022-08-26T15:41:52.275Z,5.00
2022-08-26T15:45:14.190Z,5.15
2022-08-26T15:48:32.320Z,7.25
2022-08-26T15:51:45.163Z,4.70
2022-08-26T15:54:49.278Z,9.88
2022-08-26T15:57:56.140Z,5.32
2022-08-26T16:01:44.780Z,5.68
2022-08-26T16:04:49.480Z,6.45
2022-08-26T16:08:01.386Z,6.38
2022-08-26T16:11:05.928Z,9.75
2022-08-26T16:14:09.210Z,4.50
2022-08-26T16:17:12.767Z,4.20
2022-08-26T16:20:15.716Z,5.25
2022-08-26T16:23:23.081Z,5.95
2022-08-26T16:26:31.767Z,5.45
2022-08-26T16:29:39.653Z,5.57
2022-08-26T16:32:43.666Z,5.25
2022-08-26T16:35:45.830Z,6.40
2022-08-26T16:38:56.576Z,4.60
2022-08-26T16:42:01.079Z,4.20
2022-08-26T16:45:06.112Z,6.13
2022-08-26T16:48:10.410Z,4.55
2022-08-26T16:51:17.139Z,7.90
2022-08-26T16:54:26.414Z,4.75
2022-08-26T16:57:29.792Z,5.90
2022-08-26T17:00:35.766Z,9.63
2022-08-26T17:03:38.457Z,4.97
2022-08-26T17:06:44.105Z,6.10
2022-08-26T17:09:49.351Z,6.93
2022-08-26T17:12:53.297Z,7.55
2022-08-26T17:15:58.391Z,6.65
2022-08-26T17:19:03.970Z,4.45
2022-08-26T17:22:10.633Z,5.57
2022-08-26T17:25:24.517Z,5.00
2022-08-26T17:28:26.955Z,4.57
2022-08-26T17:31:33.030Z,4.93
2022-08-26T17:34:35.165Z,3.85
2022-08-26T17:37:37.581Z,4.75
2022-08-26T17:40:39.746Z,4.53
2022-08-26T17:43:45.839Z,3.63
2022-08-26T17:46:47.852Z,4.65
2022-08-26T17:49:56.160Z,4.03
2022-08-26T17:52:59.363Z,5.40
2022-08-26T17:56:02.904Z,4.82
2022-08-26T17:59:07.652Z,4.32
2022-08-26T18:02:10.422Z,6.70
2022-08-26T18:05:17.247Z,4.90
2022-08-26T18:08:25.211Z,4.40
2022-08-26T18:11:30.707Z,4.10
2022-08-26T18:14:35.551Z,5.18
2022-08-26T18:17:41.973Z,5.90
2022-08-26T18:20:51.965Z,4.35
2022-08-26T18:24:08.277Z,6.35
2022-08-26T18:27:27.502Z,4.20
2022-08-26T18:30:34.982Z,4.43
2022-08-26T18:33:38.823Z,4.05
2022-08-26T18:36:48.264Z,7.38
2022-08-26T18:39:52.132Z,4.97
2022-08-26T18:42:55.113Z,4.85
2022-08-26T18:46:08.587Z,4.40
2022-08-26T18:49:14.934Z,4.10
2022-08-26T18:52:22.283Z,4.82
2022-08-26T18:55:27.213Z,4.72
2022-08-26T18:58:31.302Z,3.88
2022-08-26T19:01:38.554Z,5.93
2022-08-26T19:04:42.594Z,3.95
2022-08-26T19:07:46.313Z,5.20
2022-08-26T19:10:51.392Z,4.60
2022-08-26T19:14:02.723Z,3.85
2022-08-26T19:17:07.831Z,4.83
2022-08-26T19:20:14.682Z,4.50
2022-08-26T19:23:31.537Z,4.40
2022-08-26T19:26:41.094Z,3.70
2022-08-26T19:29:43.944Z,4.23
2022-08-26T19:32:56.968Z,3.87
2022-08-26T19:36:06.381Z,3.53
2022-08-26T19:39:10.523Z,3.57
2022-08-26T19:42:13.723Z,4.03
2022-08-26T19:45:25.084Z,3.70
2022-08-26T19:48:32.620Z,4.47
2022-08-26T19:51:36.835Z,4.22
2022-08-26T19:54:39.794Z,4.53
2022-08-26T19:57:45.863Z,4.13
2022-08-26T20:00:49.637Z,4.10
2022-08-26T20:03:53.810Z,4.13
2022-08-26T20:07:00.911Z,3.53
2022-08-26T20:10:05.924Z,4.60
2022-08-26T20:13:10.804Z,3.47
2022-08-26T20:16:16.447Z,3.90
2022-08-26T20:19:39.406Z,4.40
2022-08-26T20:22:43.921Z,4.17
2022-08-26T20:25:46.864Z,4.87
2022-08-26T20:28:50.999Z,4.77
2022-08-26T20:31:55.844Z,6.23
2022-08-26T20:34:57.791Z,4.40
2022-08-26T20:38:03.874Z,6.00
2022-08-26T20:41:12.237Z,4.07
2022-08-26T20:44:15.110Z,3.87
2022-08-26T20:47:19.550Z,3.80
2022-08-26T20:50:28.568Z,3.63
2022-08-26T20:53:33.414Z,4.87
2022-08-26T20:56:38.819Z,3.87
2022-08-26T20:59:41.251Z,3.20
2022-08-26T21:02:43.401Z,3.17
2022-08-26T21:05:46.149Z,2.97
2022-08-26T21:08:48.989Z,3.90
2022-08-26T21:11:52.048Z,3.40
2022-08-26T21:14:54.111Z,2.60
2022-08-26T21:17:57.599Z,3.00
2022-08-26T21:21:09.950Z,3.27
2022-08-26T21:24:15.058Z,2.83
2022-08-26T21:27:24.411Z,3.40
2022-08-26T21:30:29.290Z,2.97
2022-08-26T21:33:31.861Z,2.40
2022-08-26T21:36:35.740Z,3.70
2022-08-26T21:39:38.709Z,2.47
2022-08-26T21:42:44.410Z,3.00
2022-08-26T21:45:46.623Z,3.80
2022-08-26T21:48:59.352Z,4.20
2022-08-26T21:52:05.078Z,3.00
2022-08-26T21:55:11.780Z,3.17
2022-08-26T21:58:14.537Z,3.70
2022-08-26T22:01:23.325Z,2.30
2022-08-26T22:04:25.970Z,2.67
2022-08-26T22:07:32.710Z,3.20
2022-08-26T22:10:38.610Z,2.97
2022-08-26T22:13:42.380Z,3.00
2022-08-26T22:16:50.622Z,2.63
2022-08-26T22:19:53.497Z,4.03
2022-08-26T22:22:58.439Z,4.20
2022-08-26T22:26:01.677Z,2.27
2022-08-26T22:29:05.071Z,2.70
2022-08-26T22:32:08.792Z,2.47
2022-08-26T22:35:28.774Z,4.37
2022-08-26T22:38:35.519Z,2.80
2022-08-26T22:41:38.047Z,2.90
2022-08-26T22:44:41.790Z,3.20
2022-08-26T22:47:43.810Z,6.00
2022-08-26T22:50:47.749Z,2.83
2022-08-26T22:53:50.522Z,2.77
2022-08-26T22:56:52.559Z,2.70
2022-08-26T22:59:54.517Z,3.23
2022-08-26T23:02:56.928Z,2.13
2022-08-26T23:06:01.350Z,2.70
2022-08-26T23:09:05.802Z,2.23
2022-08-26T23:12:09.089Z,1.53
2022-08-26T23:15:12.539Z,4.70
2022-08-26T23:18:15.470Z,3.70
2022-08-26T23:21:18.469Z,2.30
2022-08-26T23:24:21.419Z,2.20
2022-08-26T23:27:24.551Z,2.30
2022-08-26T23:30:28.921Z,2.67
2022-08-26T23:33:52.130Z,2.20
2022-08-26T23:36:54.119Z,3.43
2022-08-26T23:39:56.759Z,2.20
2022-08-26T23:43:03.800Z,2.43
2022-08-26T23:46:07.152Z,2.30
2022-08-26T23:49:09.781Z,2.53
2022-08-26T23:52:30.629Z,2.67
2022-08-26T23:55:37.400Z,2.63
2022-08-26T23:58:40.534Z,2.57
